createdAt,value
2019-04-06T00:00:03.907Z,1006.43
2019-04-06T00:10:03.677Z,1006.30
2019-04-06T00:20:03.288Z,1006.22
2019-04-06T00:30:03.885Z,1006.26
2019-04-06T00:40:03.154Z,1006.29
2019-04-06T00:50:04.031Z,1006.33
2019-04-06T01:00:04.231Z,1006.42
2019-04-06T01:10:03.798Z,1006.45
2019-04-06T01:20:03.640Z,1006.31
2019-04-06T01:30:04.092Z,1006.26
2019-04-06T01:40:03.326Z,1006.21
2019-04-06T01:50:04.330Z,1006.21
2019-04-06T02:00:04.507Z,1006.19
2019-04-06T02:10:04.440Z,1006.08
2019-04-06T02:20:03.440Z,1006.08
2019-04-06T02:30:03.890Z,1006.11
2019-04-06T02:40:03.229Z,1006.16
2019-04-06T02:50:04.083Z,1006.22
2019-04-06T03:00:04.219Z,1006.10
2019-04-06T03:10:04.475Z,1006.08
2019-04-06T03:20:03.505Z,1006.11
2019-04-06T03:30:04.383Z,1006.06
2019-04-06T03:40:03.820Z,1006.08
2019-04-06T03:50:03.785Z,1005.99
2019-04-06T04:00:04.008Z,1006.02
2019-04-06T04:10:03.624Z,1006.00
2019-04-06T04:20:03.273Z,1006.03
2019-04-06T04:30:04.537Z,1006.09
2019-04-06T04:40:03.080Z,1006.13
2019-04-06T04:50:04.071Z,1006.30
2019-04-06T05:00:03.974Z,1006.32
2019-04-06T05:10:03.411Z,1006.33
2019-04-06T05:20:03.440Z,1006.36
2019-04-06T05:30:03.876Z,1006.47
2019-04-06T05:40:02.883Z,1006.49
2019-04-06T05:50:03.236Z,1006.61
2019-04-06T06:00:04.124Z,1006.61
2019-04-06T06:10:03.649Z,1006.63
2019-04-06T06:20:02.953Z,1006.64
2019-04-06T06:30:04.409Z,1006.58
2019-04-06T06:40:03.001Z,1006.57
2019-04-06T06:50:03.715Z,1006.61
2019-04-06T07:00:03.756Z,1006.72
2019-04-06T07:10:06.925Z,1006.71
2019-04-06T07:20:03.879Z,1006.70
2019-04-06T07:30:04.712Z,1006.67
2019-04-06T07:40:03.341Z,1006.72
2019-04-06T07:50:03.066Z,1006.70
2019-04-06T08:00:04.366Z,1006.52
2019-04-06T08:10:02.928Z,1006.45
2019-04-06T08:20:03.754Z,1006.43
2019-04-06T08:30:03.964Z,1006.47
2019-04-06T08:40:03.474Z,1006.38
2019-04-06T08:50:03.507Z,1006.27
2019-04-06T09:00:03.765Z,1006.19
2019-04-06T09:10:03.794Z,1006.12
2019-04-06T09:20:03.504Z,1006.04
2019-04-06T09:30:03.997Z,1005.99
2019-04-06T09:40:03.455Z,1005.82
2019-04-06T09:50:03.394Z,1005.67
2019-04-06T10:00:04.519Z,1005.50
2019-04-06T10:10:03.045Z,1005.47
2019-04-06T10:20:03.028Z,1005.40
2019-04-06T10:30:04.730Z,1005.34
2019-04-06T10:40:02.943Z,1005.24
2019-04-06T10:50:03.637Z,1005.23
2019-04-06T11:00:04.593Z,1005.24
2019-04-06T11:10:03.211Z,1004.98
2019-04-06T11:20:03.554Z,1004.76
2019-04-06T11:30:15.423Z,1004.63
2019-04-06T11:40:03.744Z,1004.50
2019-04-06T11:50:03.349Z,1004.46
2019-04-06T12:00:04.703Z,1004.50
2019-04-06T12:10:04.311Z,1004.50
2019-04-06T12:20:04.175Z,1004.44
2019-04-06T12:30:04.578Z,1004.31
2019-04-06T12:40:03.537Z,1004.43
2019-04-06T12:50:03.809Z,1004.40
2019-04-06T13:00:05.038Z,1004.29
2019-04-06T13:10:03.695Z,1004.29
2019-04-06T13:20:03.422Z,1004.19
2019-04-06T13:30:04.267Z,1004.19
2019-04-06T13:40:04.251Z,1004.16
2019-04-06T13:50:03.483Z,1004.04
2019-04-06T14:00:03.935Z,1003.92
2019-04-06T14:10:03.536Z,1003.83
2019-04-06T14:20:03.775Z,1003.76
2019-04-06T14:30:04.656Z,1003.67
2019-04-06T14:40:03.005Z,1003.85
2019-04-06T14:50:04.329Z,1003.89
2019-04-06T15:00:04.367Z,1003.82
2019-04-06T15:10:04.351Z,1003.84
2019-04-06T15:20:03.117Z,1003.83
2019-04-06T15:30:03.698Z,1003.81
2019-04-06T15:40:04.055Z,1003.74
2019-04-06T15:50:03.296Z,1003.87
2019-04-06T16:00:04.633Z,1003.90
2019-04-06T16:10:04.088Z,1003.81
2019-04-06T16:20:03.787Z,1003.69
2019-04-06T16:30:05.330Z,1003.84
2019-04-06T16:40:03.215Z,1003.87
2019-04-06T16:50:02.914Z,1003.89
2019-04-06T17:00:20.518Z,1003.80
2019-04-06T17:10:04.300Z,1003.79
2019-04-06T17:20:03.272Z,1003.81
2019-04-06T17:30:05.323Z,1003.77
2019-04-06T17:40:04.054Z,1003.80
2019-04-06T17:50:04.519Z,1003.81
2019-04-06T18:00:04.401Z,1004.08
2019-04-06T18:10:04.588Z,1004.05
2019-04-06T18:20:02.998Z,1004.12
2019-04-06T18:30:04.853Z,1004.15
2019-04-06T18:40:03.734Z,1004.25
2019-04-06T18:50:03.459Z,1004.33
2019-04-06T19:00:04.016Z,1004.43
2019-04-06T19:10:04.116Z,1004.50
2019-04-06T19:20:03.455Z,1004.61
2019-04-06T19:30:04.884Z,1004.54
2019-04-06T19:40:03.752Z,1004.42
2019-04-06T19:50:03.952Z,1004.30
2019-04-06T20:00:04.211Z,1004.09
2019-04-06T20:10:03.876Z,1004.08
2019-04-06T20:20:03.337Z,1003.92
2019-04-06T20:30:04.508Z,1003.93
2019-04-06T20:40:03.190Z,1003.95
2019-04-06T20:50:04.038Z,1003.99
2019-04-06T21:00:04.988Z,1003.97
2019-04-06T21:10:05.347Z,1004.02
2019-04-06T21:20:03.753Z,1003.99
2019-04-06T21:30:04.063Z,1003.98
2019-04-06T21:40:04.407Z,1003.94
2019-04-06T21:50:03.803Z,1003.90
2019-04-06T22:00:06.270Z,1003.88
2019-04-06T22:10:03.935Z,1003.91
2019-04-06T22:20:04.553Z,1003.85
2019-04-06T22:30:04.664Z,1003.87
2019-04-06T22:40:03.769Z,1003.92
2019-04-06T22:50:04.730Z,1003.89
2019-04-06T23:00:05.473Z,1003.84
2019-04-06T23:10:04.700Z,1003.83
2019-04-06T23:20:04.481Z,1003.75
2019-04-06T23:30:05.142Z,1003.66
2019-04-06T23:40:04.256Z,1003.72
2019-04-06T23:50:03.522Z,1003.73
